Time;durP1;ratioP1;P1;durP2;ratioP2;P2;SDS_P1;SDS_P2;PMS_P1;PMS_P2;Temp;Humidity;BMP_temperature;BMP_pressure;BME280_temperature;BME280_humidity;BME280_pressure;Samples;Min_cycle;Max_cycle;Signal;HPM_P1;HPM_P2
2023/07/01 00:02:55;;;;;;;6.38;5.78;;;17.00;99.90;;;;;;6304516;28;20048;-81
2023/07/01 00:05:59;;;;;;;7.22;5.57;;;17.00;99.90;;;;;;6305275;28;20048;-80
2023/07/01 00:09:00;;;;;;;7.32;5.50;;;16.90;99.90;;;;;;6305726;28;20044;-80
2023/07/01 00:12:02;;;;;;;11.98;5.97;;;16.90;99.90;;;;;;6304663;28;20573;-79
2023/07/01 00:15:06;;;;;;;9.48;5.53;;;16.90;99.90;;;;;;6305329;28;20052;-80
2023/07/01 00:18:08;;;;;;;7.72;6.60;;;16.80;99.90;;;;;;6304767;28;20071;-79
2023/07/01 00:21:11;;;;;;;7.45;5.60;;;16.80;99.90;;;;;;6305416;28;20048;-80
2023/07/01 00:24:12;;;;;;;6.22;4.97;;;16.70;99.90;;;;;;6305455;28;20059;-80
2023/07/01 00:27:14;;;;;;;8.18;6.43;;;16.70;99.90;;;;;;6305862;28;20529;-79
2023/07/01 00:30:16;;;;;;;9.68;5.63;;;16.70;99.90;;;;;;6304932;28;20040;-80
2023/07/01 00:33:18;;;;;;;14.68;6.78;;;16.60;99.90;;;;;;6305245;28;20048;-80
2023/07/01 00:36:21;;;;;;;9.35;6.53;;;16.60;99.90;;;;;;6304782;28;20048;-79
2023/07/01 00:39:22;;;;;;;7.00;5.93;;;16.60;99.90;;;;;;6303496;28;20052;-80
2023/07/01 00:42:24;;;;;;;7.30;6.22;;;16.50;99.90;;;;;;6304516;28;20063;-80
2023/07/01 00:45:26;;;;;;;7.70;6.55;;;16.50;99.90;;;;;;6303207;28;20053;-80
2023/07/01 00:48:29;;;;;;;8.93;6.47;;;16.40;99.90;;;;;;6300076;28;20415;-79
2023/07/01 00:51:32;;;;;;;6.93;5.65;;;16.40;99.90;;;;;;6299353;28;20415;-78
2023/07/01 00:54:35;;;;;;;9.13;7.28;;;16.40;99.90;;;;;;6293825;28;20048;-79
2023/07/01 00:57:37;;;;;;;11.25;5.68;;;16.40;99.90;;;;;;6273505;28;20484;-78
2023/07/01 01:00:38;;;;;;;12.20;6.65;;;16.30;99.90;;;;;;6275069;28;20049;-79
2023/07/01 01:03:48;;;;;;;7.53;6.47;;;16.30;99.90;;;;;;6274235;28;20049;-80
2023/07/01 01:06:59;;;;;;;12.55;7.35;;;16.30;99.90;;;;;;6273970;28;20041;-79
2023/07/01 01:10:07;;;;;;;10.85;7.47;;;16.20;99.90;;;;;;6274093;28;20223;-79
2023/07/01 01:13:10;;;;;;;7.47;5.82;;;16.20;99.90;;;;;;6277965;28;20052;-78
2023/07/01 01:16:14;;;;;;;9.10;7.70;;;16.10;99.90;;;;;;6285040;28;20565;-79
2023/07/01 01:19:28;;;;;;;8.35;7.03;;;16.10;99.90;;;;;;6283444;28;20103;-78
2023/07/01 01:22:35;;;;;;;7.43;6.68;;;16.10;99.90;;;;;;6287747;28;20041;-80
2023/07/01 01:25:43;;;;;;;11.80;6.85;;;16.10;99.90;;;;;;6306596;28;20049;-81
2023/07/01 01:28:47;;;;;;;10.95;9.27;;;16.10;99.90;;;;;;6307966;28;20471;-81
2023/07/01 01:31:48;;;;;;;9.70;7.03;;;16.00;99.90;;;;;;6308539;28;20059;-79
2023/07/01 01:34:50;;;;;;;8.10;6.97;;;16.00;99.90;;;;;;6307771;28;20058;-80
2023/07/01 01:37:58;;;;;;;13.27;10.30;;;16.00;99.90;;;;;;6308584;28;20045;-80
2023/07/01 01:41:02;;;;;;;;;;;16.00;99.90;;;;;;6302154;28;20070;-82
2023/07/01 01:44:10;;;;;;;9.07;7.10;;;15.90;99.90;;;;;;6304596;28;19932;-81
2023/07/01 01:47:16;;;;;;;12.20;8.68;;;15.90;99.90;;;;;;6305993;28;20048;-82
2023/07/01 01:50:20;;;;;;;10.45;8.05;;;15.90;99.90;;;;;;6306119;28;20052;-81
2023/07/01 01:53:24;;;;;;;15.70;8.02;;;15.90;99.90;;;;;;6303829;28;20079;-80
2023/07/01 01:56:30;;;;;;;14.20;8.32;;;15.80;99.90;;;;;;6303706;28;20052;-80
2023/07/01 01:59:33;;;;;;;8.10;7.30;;;15.80;99.90;;;;;;6305679;28;20051;-81
2023/07/01 02:02:35;;;;;;;13.15;8.00;;;15.80;99.90;;;;;;6304604;28;20056;-81
2023/07/01 02:05:37;;;;;;;13.68;7.82;;;15.70;99.90;;;;;;6304892;28;20063;-82
2023/07/01 02:08:39;;;;;;;9.90;8.07;;;15.70;99.90;;;;;;6306050;28;20063;-82
2023/07/01 02:11:40;;;;;;;10.55;7.68;;;15.70;99.90;;;;;;6305917;28;20491;-81
2023/07/01 02:14:43;;;;;;;9.85;7.45;;;15.70;99.90;;;;;;6305479;28;20048;-81
2023/07/01 02:17:45;;;;;;;9.10;8.02;;;15.70;99.90;;;;;;6292510;28;20045;-82
2023/07/01 02:20:47;;;;;;;11.88;7.30;;;15.60;99.90;;;;;;6281059;28;20056;-82
2023/07/01 02:23:48;;;;;;;11.40;6.85;;;15.60;99.90;;;;;;6281218;28;20056;-82
2023/07/01 02:26:51;;;;;;;7.40;6.63;;;15.60;99.90;;;;;;6280283;28;20053;-81
2023/07/01 02:29:54;;;;;;;13.38;9.45;;;15.60;99.90;;;;;;6280098;28;20111;-79
2023/07/01 02:32:55;;;;;;;14.88;7.60;;;15.60;99.90;;;;;;6280608;28;20170;-82
2023/07/01 02:35:57;;;;;;;8.88;7.63;;;15.50;99.90;;;;;;6279872;28;20044;-80
2023/07/01 02:38:59;;;;;;;8.25;6.25;;;15.40;99.90;;;;;;6280074;28;20041;-79
2023/07/01 02:42:01;;;;;;;9.82;7.18;;;15.40;99.90;;;;;;6280210;28;20053;-82
2023/07/01 02:45:04;;;;;;;13.93;6.35;;;15.40;99.90;;;;;;6276281;28;20044;-81
2023/07/01 02:48:06;;;;;;;12.15;7.72;;;15.30;99.90;;;;;;6278570;28;20091;-82
2023/07/01 02:51:08;;;;;;;12.90;7.88;;;15.30;99.90;;;;;;6283120;28;20060;-80
2023/07/01 02:54:10;;;;;;;7.57;6.78;;;15.30;99.90;;;;;;6282766;28;20053;-80
2023/07/01 02:57:11;;;;;;;8.07;7.00;;;15.20;99.90;;;;;;6285021;28;20472;-81
2023/07/01 03:00:15;;;;;;;10.35;7.28;;;15.20;99.90;;;;;;6282335;28;20056;-82
2023/07/01 03:03:18;;;;;;;8.68;7.40;;;15.20;99.90;;;;;;6282049;28;20049;-80
2023/07/01 03:06:20;;;;;;;8.13;7.15;;;15.20;99.90;;;;;;6282256;28;20052;-80
2023/07/01 03:09:21;;;;;;;10.05;7.20;;;15.20;99.90;;;;;;6284238;28;20067;-80
2023/07/01 03:12:23;;;;;;;7.13;6.10;;;15.10;99.90;;;;;;6290987;28;20040;-80
2023/07/01 03:15:26;;;;;;;10.45;7.20;;;15.10;99.90;;;;;;6307820;28;20053;-80
2023/07/01 03:18:28;;;;;;;10.27;6.53;;;15.10;99.90;;;;;;6306372;28;20154;-82
2023/07/01 03:21:29;;;;;;;9.68;8.70;;;15.00;99.90;;;;;;6305647;28;20052;-81
2023/07/01 03:24:33;;;;;;;8.00;7.15;;;15.00;99.90;;;;;;6313514;28;20060;-81
2023/07/01 03:27:35;;;;;;;9.77;7.15;;;15.00;99.90;;;;;;6311067;28;20055;-81
2023/07/01 03:30:38;;;;;;;8.43;6.70;;;14.90;99.90;;;;;;6300199;28;20055;-81
2023/07/01 03:33:40;;;;;;;8.60;6.75;;;14.90;99.90;;;;;;6302290;28;20384;-80
2023/07/01 03:36:41;;;;;;;8.52;7.20;;;14.90;99.90;;;;;;6310731;28;20130;-80
2023/07/01 03:39:43;;;;;;;8.93;6.07;;;14.90;99.90;;;;;;6309307;28;20049;-81
2023/07/01 03:42:45;;;;;;;9.02;6.68;;;14.90;99.90;;;;;;6310579;28;20040;-82
2023/07/01 03:45:48;;;;;;;7.18;6.47;;;14.80;99.90;;;;;;6308377;28;20052;-81
2023/07/01 03:48:49;;;;;;;8.27;6.95;;;14.90;99.90;;;;;;6310510;28;20059;-80
2023/07/01 03:51:52;;;;;;;7.93;5.55;;;14.90;99.90;;;;;;6310437;28;20052;-81
2023/07/01 03:54:54;;;;;;;7.28;6.40;;;14.90;99.90;;;;;;6310339;28;20090;-82
2023/07/01 03:57:55;;;;;;;9.48;6.53;;;14.90;99.90;;;;;;6309007;28;20053;-81
2023/07/01 04:00:59;;;;;;;11.10;6.78;;;15.00;99.90;;;;;;6299506;28;20053;-80
2023/07/01 04:04:00;;;;;;;6.70;6.05;;;15.10;99.90;;;;;;6284582;28;20052;-82
2023/07/01 04:07:02;;;;;;;10.55;6.28;;;15.10;99.90;;;;;;6283284;28;20499;-81
2023/07/01 04:10:05;;;;;;;12.13;6.35;;;15.10;99.90;;;;;;6283642;28;20049;-82
2023/07/01 04:13:07;;;;;;;7.57;5.28;;;15.20;99.90;;;;;;6283956;28;20047;-81
2023/07/01 04:16:11;;;;;;;7.28;5.32;;;15.30;99.90;;;;;;6283526;28;20052;-82
2023/07/01 04:19:12;;;;;;;11.40;6.38;;;15.40;99.90;;;;;;6283375;28;20049;-83
2023/07/01 04:22:14;;;;;;;7.32;5.90;;;15.60;99.90;;;;;;6282846;28;20060;-82
2023/07/01 04:25:16;;;;;;;4.97;4.47;;;16.00;99.90;;;;;;6283478;28;20175;-80
2023/07/01 04:28:17;;;;;;;8.02;4.65;;;16.40;99.90;;;;;;6304292;28;20045;-81
2023/07/01 04:31:20;;;;;;;18.75;4.95;;;16.80;99.90;;;;;;6309820;28;20052;-82
2023/07/01 04:34:22;;;;;;;5.10;4.13;;;17.00;99.90;;;;;;6310588;28;20067;-81
2023/07/01 04:37:24;;;;;;;4.22;3.75;;;17.10;99.90;;;;;;6309552;28;20048;-81
2023/07/01 04:40:26;;;;;;;4.22;3.25;;;17.30;99.90;;;;;;6311097;28;20414;-80
2023/07/01 04:43:29;;;;;;;4.15;3.45;;;17.70;99.90;;;;;;6309195;28;20060;-82
2023/07/01 04:46:32;;;;;;;5.35;3.60;;;18.20;99.90;;;;;;6310654;28;20048;-82
2023/07/01 04:49:34;;;;;;;6.13;3.83;;;18.50;99.90;;;;;;6310305;28;20083;-82
2023/07/01 04:52:36;;;;;;;3.78;3.05;;;18.80;99.90;;;;;;6310838;28;20082;-82
2023/07/01 04:55:37;;;;;;;4.32;3.42;;;19.20;99.90;;;;;;6311212;28;20075;-82
2023/07/01 04:58:39;;;;;;;4.00;2.78;;;19.40;99.90;;;;;;6311227;28;20055;-82
2023/07/01 05:01:42;;;;;;;4.40;3.03;;;19.60;99.90;;;;;;6308526;28;20121;-82
2023/07/01 05:04:44;;;;;;;7.38;3.40;;;19.80;99.90;;;;;;6309100;28;20048;-81
2023/07/01 05:07:46;;;;;;;6.10;3.80;;;20.30;99.90;;;;;;6311650;28;20064;-82
2023/07/01 05:10:48;;;;;;;3.92;2.55;;;20.60;99.90;;;;;;6310932;28;20048;-81
2023/07/01 05:13:49;;;;;;;4.65;2.78;;;20.70;99.90;;;;;;6311222;28;20063;-81
2023/07/01 05:16:52;;;;;;;7.43;2.63;;;21.00;99.90;;;;;;6311233;28;20422;-81
2023/07/01 05:19:54;;;;;;;7.80;3.78;;;21.30;99.90;;;;;;6310204;28;20053;-81
2023/07/01 05:22:56;;;;;;;5.43;3.13;;;21.70;99.90;;;;;;6311667;28;20047;-81
2023/07/01 05:25:57;;;;;;;3.20;2.47;;;22.10;99.90;;;;;;6313224;28;20049;-82
2023/07/01 05:28:59;;;;;;;5.68;3.10;;;22.50;99.90;;;;;;6312884;28;20048;-82
2023/07/01 05:32:03;;;;;;;4.35;2.75;;;22.70;99.90;;;;;;6310110;28;20048;-82
2023/07/01 05:35:05;;;;;;;10.43;3.50;;;23.10;99.90;;;;;;6309801;28;20052;-82
2023/07/01 05:38:08;;;;;;;4.07;2.45;;;23.50;99.90;;;;;;6305286;28;20055;-82
2023/07/01 05:41:10;;;;;;;3.03;2.72;;;23.70;99.90;;;;;;6310499;28;20048;-82
2023/07/01 05:44:12;;;;;;;3.63;2.40;;;23.30;99.90;;;;;;6309086;28;20463;-83
2023/07/01 05:47:15;;;;;;;5.50;3.60;;;22.50;99.90;;;;;;6310759;28;20053;-81
2023/07/01 05:50:17;;;;;;;6.57;3.28;;;21.70;99.90;;;;;;6309556;28;20076;-82
2023/07/01 05:53:19;;;;;;;5.97;2.88;;;21.30;99.90;;;;;;6309377;28;20048;-82
2023/07/01 05:56:20;;;;;;;6.10;3.55;;;20.90;99.90;;;;;;6309076;28;20052;-82
2023/07/01 05:59:22;;;;;;;5.47;2.88;;;20.70;99.90;;;;;;6308829;28;20051;-80
2023/07/01 06:02:25;;;;;;;3.65;2.90;;;20.40;99.90;;;;;;6309667;28;20049;-81
2023/07/01 06:05:27;;;;;;;5.32;4.80;;;20.30;99.90;;;;;;6309385;28;20052;-82
2023/07/01 06:08:28;;;;;;;7.55;3.20;;;20.30;99.90;;;;;;6307431;28;20048;-81
2023/07/01 06:11:30;;;;;;;8.25;3.97;;;20.30;99.90;;;;;;6307567;28;20087;-82
2023/07/01 06:14:32;;;;;;;9.38;3.33;;;20.50;99.90;;;;;;6309356;28;20124;-81
2023/07/01 06:17:35;;;;;;;3.95;2.72;;;20.40;99.90;;;;;;6302497;28;20056;-81
2023/07/01 06:20:36;;;;;;;5.50;3.42;;;20.40;99.90;;;;;;6300242;28;20048;-82
2023/07/01 06:23:38;;;;;;;10.73;4.47;;;20.30;99.90;;;;;;6294527;28;20040;-80
2023/07/01 06:26:40;;;;;;;7.07;2.60;;;20.40;99.90;;;;;;6288360;28;20048;-82
2023/07/01 06:29:41;;;;;;;4.65;3.75;;;20.40;99.90;;;;;;6283537;28;20049;-82
2023/07/01 06:32:45;;;;;;;7.22;2.95;;;21.20;99.90;;;;;;6287798;28;20049;-82
2023/07/01 06:35:46;;;;;;;6.03;3.20;;;22.60;99.90;;;;;;6287254;28;20051;-82
2023/07/01 06:38:49;;;;;;;4.45;2.60;;;23.70;99.90;;;;;;6287204;28;20443;-80
2023/07/01 06:41:50;;;;;;;3.55;2.10;;;24.20;99.90;;;;;;6286727;28;20060;-80
2023/07/01 06:44:52;;;;;;;7.70;1.90;;;24.80;99.90;;;;;;6289219;28;20055;-80
2023/07/01 06:47:55;;;;;;;3.38;2.42;;;25.30;99.90;;;;;;6293263;28;20044;-82
2023/07/01 06:50:57;;;;;;;8.00;2.97;;;25.50;99.90;;;;;;6295945;28;20049;-81
2023/07/01 06:53:58;;;;;;;2.03;1.83;;;25.60;99.90;;;;;;6298336;28;20040;-82
2023/07/01 06:57:00;;;;;;;4.55;3.35;;;25.90;99.90;;;;;;6298827;28;20044;-80
2023/07/01 07:00:03;;;;;;;5.68;2.17;;;26.30;99.40;;;;;;6299932;28;20518;-80
2023/07/01 07:03:06;;;;;;;2.13;1.83;;;26.80;97.90;;;;;;6302106;28;20096;-81
2023/07/01 07:06:07;;;;;;;6.68;2.03;;;27.50;96.20;;;;;;6303572;28;20048;-82
2023/07/01 07:09:09;;;;;;;3.88;2.22;;;27.50;93.70;;;;;;6303486;28;20044;-81
2023/07/01 07:12:11;;;;;;;3.17;2.60;;;26.80;92.20;;;;;;6302939;28;20074;-82
2023/07/01 07:15:13;;;;;;;4.45;2.00;;;26.30;92.70;;;;;;6298317;28;20047;-82
2023/07/01 07:18:16;;;;;;;7.03;2.90;;;26.40;92.70;;;;;;6294508;28;20052;-81
2023/07/01 07:21:18;;;;;;;4.22;2.65;;;26.40;91.50;;;;;;6296608;28;20056;-82
2023/07/01 07:24:19;;;;;;;8.15;2.40;;;26.30;90.50;;;;;;6297992;28;20052;-81
2023/07/01 07:27:21;;;;;;;8.30;2.30;;;26.10;90.40;;;;;;6295394;28;20083;-82
2023/07/01 07:30:23;;;;;;;3.47;2.75;;;26.30;88.50;;;;;;6295703;28;20045;-83
2023/07/01 07:33:26;;;;;;;8.45;3.10;;;26.70;86.00;;;;;;6294483;28;20565;-81
2023/07/01 07:36:28;;;;;;;13.98;2.88;;;27.30;82.30;;;;;;6294780;28;20060;-82
2023/07/01 07:39:30;;;;;;;4.38;2.40;;;27.10;78.80;;;;;;6297640;28;21173;-80
2023/07/01 07:42:31;;;;;;;6.53;3.08;;;26.80;77.50;;;;;;6296483;28;20048;-83
2023/07/01 07:45:33;;;;;;;4.60;3.17;;;26.70;76.80;;;;;;6298330;28;20079;-83
2023/07/01 07:48:36;;;;;;;5.20;2.85;;;26.60;75.30;;;;;;6297501;28;20048;-83
2023/07/01 07:51:38;;;;;;;6.88;5.55;;;26.00;75.00;;;;;;6295748;28;20045;-83
2023/07/01 07:54:42;;;;;;;7.60;5.65;;;25.60;75.60;;;;;;6298175;28;20048;-83
2023/07/01 07:57:43;;;;;;;9.07;4.85;;;25.50;75.80;;;;;;6296321;28;20427;-83
2023/07/01 08:00:45;;;;;;;6.45;4.90;;;25.10;75.70;;;;;;6296412;28;20052;-82
2023/07/01 08:03:48;;;;;;;9.07;6.95;;;24.90;76.20;;;;;;6298174;28;20055;-81
2023/07/01 08:06:50;;;;;;;9.52;6.97;;;24.90;77.40;;;;;;6298429;28;20406;-81
2023/07/01 08:09:51;;;;;;;14.00;6.50;;;25.10;76.30;;;;;;6296731;28;20426;-82
2023/07/01 08:12:53;;;;;;;15.98;6.50;;;24.90;75.80;;;;;;6297692;28;20048;-84
2023/07/01 08:15:56;;;;;;;8.13;4.97;;;25.00;75.90;;;;;;6298363;28;20040;-83
2023/07/01 08:19:39;;;;;;;9.20;5.72;;;25.30;75.40;;;;;;6298747;28;20656;-82
2023/07/01 08:25:59;;;;;;;8.57;5.70;;;26.80;74.40;;;;;;6296628;28;20163;-82
2023/07/01 08:29:01;;;;;;;8.75;4.60;;;27.10;71.90;;;;;;6295744;28;20079;-80
2023/07/01 08:32:03;;;;;;;7.70;3.72;;;26.90;69.50;;;;;;6293350;28;20040;-80
2023/07/01 08:35:05;;;;;;;6.07;2.67;;;26.90;68.80;;;;;;6296670;28;20052;-81
2023/07/01 08:38:08;;;;;;;7.22;3.00;;;26.70;69.30;;;;;;6297913;28;20062;-81
2023/07/01 08:41:16;;;;;;;4.43;3.05;;;26.10;67.90;;;;;;6301295;28;20058;-82
2023/07/01 08:44:19;;;;;;;6.55;2.90;;;25.50;69.00;;;;;;6296708;28;20060;-81
2023/07/01 08:47:22;;;;;;;7.43;3.60;;;25.50;69.10;;;;;;6289861;28;21686;-81
2023/07/01 08:50:24;;;;;;;8.07;4.95;;;25.70;69.30;;;;;;6289768;28;20092;-80
2023/07/01 08:53:27;;;;;;;6.53;4.28;;;25.80;66.80;;;;;;6288404;28;20055;-80
2023/07/01 08:56:29;;;;;;;11.20;4.65;;;26.00;67.60;;;;;;6287683;28;20048;-84
2023/07/01 08:59:32;;;;;;;9.30;3.95;;;26.70;66.30;;;;;;6286191;28;20767;-81
2023/07/01 09:02:34;;;;;;;11.23;3.60;;;26.70;65.70;;;;;;6292003;28;20147;-79
2023/07/01 09:05:36;;;;;;;5.03;3.53;;;26.80;63.50;;;;;;6285095;28;20044;-82
2023/07/01 09:08:39;;;;;;;5.28;2.58;;;26.40;64.40;;;;;;6288098;28;20052;-78
2023/07/01 09:11:41;;;;;;;8.85;3.30;;;26.10;63.90;;;;;;6285345;28;20368;-78
2023/07/01 09:14:58;;;;;;;3.70;2.88;;;25.70;65.30;;;;;;6286999;28;20121;-80
2023/07/01 09:17:59;;;;;;;6.68;2.67;;;25.90;65.50;;;;;;6285768;28;20061;-79
2023/07/01 09:21:02;;;;;;;12.60;3.63;;;26.00;64.20;;;;;;6286002;28;20067;-78
2023/07/01 09:24:06;;;;;;;5.85;2.85;;;25.80;64.80;;;;;;6285147;28;20523;-77
2023/07/01 09:27:09;;;;;;;3.75;2.10;;;25.60;64.50;;;;;;6284165;28;20047;-78
2023/07/01 09:30:26;;;;;;;7.10;3.83;;;25.50;63.60;;;;;;6286157;28;20055;-77
2023/07/01 09:33:28;;;;;;;5.22;3.10;;;25.50;63.80;;;;;;6288099;28;20622;-78
2023/07/01 09:36:32;;;;;;;12.38;3.22;;;25.50;64.00;;;;;;6290411;28;20040;-78
2023/07/01 09:39:37;;;;;;;7.20;2.60;;;25.30;63.60;;;;;;6288986;28;20048;-77
2023/07/01 09:42:50;;;;;;;7.18;3.47;;;25.10;63.60;;;;;;6287493;28;20053;-78
2023/07/01 09:45:56;;;;;;;6.53;3.40;;;25.40;64.00;;;;;;6286462;28;20051;-81
2023/07/01 09:48:57;;;;;;;9.50;2.75;;;25.60;63.90;;;;;;6287044;28;20044;-81
2023/07/01 09:52:00;;;;;;;6.00;3.85;;;25.70;64.00;;;;;;6289993;28;20048;-81
2023/07/01 09:55:04;;;;;;;10.02;3.92;;;25.50;63.60;;;;;;6288230;28;20040;-79
2023/07/01 09:58:06;;;;;;;9.48;4.10;;;25.40;64.00;;;;;;6289881;28;20060;-80
2023/07/01 10:01:08;;;;;;;8.27;3.55;;;25.20;64.20;;;;;;6300648;28;20051;-82
2023/07/01 10:04:11;;;;;;;6.57;3.30;;;25.10;64.60;;;;;;6298799;28;20045;-82
2023/07/01 10:07:12;;;;;;;5.00;3.08;;;25.20;64.80;;;;;;6298897;28;20036;-81
2023/07/01 10:10:16;;;;;;;11.85;3.97;;;25.40;64.30;;;;;;6296911;28;20054;-79
2023/07/01 10:13:18;;;;;;;9.80;2.13;;;25.40;63.80;;;;;;6298087;28;20056;-81
2023/07/01 10:16:21;;;;;;;4.28;2.13;;;25.40;63.20;;;;;;6297391;28;20064;-82
2023/07/01 10:19:27;;;;;;;4.60;2.53;;;25.20;62.60;;;;;;6297449;28;20048;-82
2023/07/01 10:22:29;;;;;;;4.35;3.33;;;25.40;62.30;;;;;;6296061;28;20431;-82
2023/07/01 10:25:35;;;;;;;5.57;2.67;;;25.40;62.70;;;;;;6294038;28;20036;-81
2023/07/01 10:28:37;;;;;;;4.50;2.63;;;25.40;61.80;;;;;;6292925;28;20079;-81
2023/07/01 10:31:39;;;;;;;7.60;3.17;;;25.50;62.00;;;;;;6287630;28;20051;-78
2023/07/01 10:35:13;;;;;;;5.65;3.10;;;25.50;61.90;;;;;;6292134;28;20039;-79
2023/07/01 10:38:22;;;;;;;7.90;2.97;;;25.60;62.30;;;;;;6291537;28;21427;-79
2023/07/01 10:41:52;;;;;;;3.83;2.80;;;25.40;60.80;;;;;;6294833;28;20491;-79
2023/07/01 10:44:54;;;;;;;4.28;2.65;;;25.10;61.50;;;;;;6292915;28;20053;-78
2023/07/01 10:48:13;;;;;;;10.15;3.10;;;24.90;61.70;;;;;;6291906;28;20086;-78
2023/07/01 10:51:15;;;;;;;6.22;3.17;;;24.70;62.50;;;;;;6293334;28;20050;-79
2023/07/01 10:54:30;;;;;;;8.52;4.28;;;24.70;63.30;;;;;;6292045;28;20041;-79
2023/07/01 10:57:33;;;;;;;3.83;2.35;;;24.70;63.10;;;;;;6293749;28;20051;-79
2023/07/01 11:00:39;;;;;;;5.07;2.58;;;24.60;63.30;;;;;;6293561;28;20076;-79
2023/07/01 11:04:02;;;;;;;4.53;2.83;;;24.50;63.90;;;;;;6289854;28;20463;-79
2023/07/01 11:07:04;;;;;;;2.25;1.67;;;24.50;64.10;;;;;;6287690;28;20133;-79
2023/07/01 11:10:07;;;;;;;3.60;2.50;;;24.50;64.60;;;;;;6293222;28;20055;-79
2023/07/01 11:13:10;;;;;;;7.88;2.72;;;24.60;64.70;;;;;;6295597;28;20055;-79
2023/07/01 11:16:12;;;;;;;6.45;2.63;;;24.70;65.70;;;;;;6293744;28;20037;-78
2023/07/01 11:19:17;;;;;;;7.45;2.33;;;24.50;65.60;;;;;;6293791;28;20067;-79
2023/07/01 11:22:18;;;;;;;4.10;2.67;;;24.30;66.20;;;;;;6294358;28;20047;-80
2023/07/01 11:25:20;;;;;;;7.38;2.30;;;24.30;66.70;;;;;;6293749;28;20056;-80
2023/07/01 11:28:33;;;;;;;3.55;2.47;;;24.30;66.70;;;;;;6294816;28;20064;-79
2023/07/01 11:31:36;;;;;;;3.60;2.55;;;24.30;66.30;;;;;;6292419;28;20203;-79
2023/07/01 11:34:38;;;;;;;5.35;3.05;;;24.30;66.60;;;;;;6293480;28;20411;-79
2023/07/01 11:37:42;;;;;;;6.30;1.98;;;24.50;66.40;;;;;;6291760;28;20460;-78
2023/07/01 11:40:43;;;;;;;6.78;2.40;;;24.50;66.00;;;;;;6293109;28;20060;-79
2023/07/01 11:43:47;;;;;;;5.32;2.45;;;24.50;65.60;;;;;;6294327;28;20479;-79
2023/07/01 11:46:49;;;;;;;5.85;2.45;;;24.40;65.50;;;;;;6295672;28;20052;-79
2023/07/01 11:49:51;;;;;;;5.05;2.33;;;24.20;65.50;;;;;;6294644;28;20044;-78
2023/07/01 11:53:06;;;;;;;2.90;2.20;;;23.90;66.00;;;;;;6296087;28;20153;-80
2023/07/01 11:56:17;;;;;;;3.70;1.83;;;23.90;66.40;;;;;;6293271;28;20056;-81
2023/07/01 11:59:34;;;;;;;5.45;1.77;;;24.00;66.30;;;;;;6295145;28;20045;-80
2023/07/01 12:02:35;;;;;;;2.85;1.92;;;24.00;66.60;;;;;;6297055;28;20055;-80
2023/07/01 12:05:37;;;;;;;3.17;2.13;;;24.20;66.20;;;;;;6295387;28;20037;-80
2023/07/01 12:08:52;;;;;;;2.85;2.22;;;24.20;66.60;;;;;;6296848;28;20049;-80
2023/07/01 12:11:54;;;;;;;12.43;2.05;;;24.30;66.20;;;;;;6295279;28;20570;-79
2023/07/01 12:15:02;;;;;;;4.47;2.40;;;24.40;65.90;;;;;;6295185;28;20044;-78
2023/07/01 12:18:20;;;;;;;2.28;1.88;;;24.50;65.40;;;;;;6293733;28;20059;-79
2023/07/01 12:21:23;;;;;;;2.53;1.90;;;24.50;65.50;;;;;;6296129;28;20060;-78
2023/07/01 12:24:27;;;;;;;3.65;1.75;;;24.70;65.30;;;;;;6295502;28;20502;-80
2023/07/01 12:27:28;;;;;;;3.78;2.30;;;24.80;64.90;;;;;;6294015;28;20041;-78
2023/07/01 12:30:32;;;;;;;3.80;2.58;;;24.80;64.50;;;;;;6292342;28;20051;-77
2023/07/01 12:33:34;;;;;;;4.68;2.15;;;24.70;64.70;;;;;;6294679;28;20055;-78
2023/07/01 12:36:36;;;;;;;3.17;1.95;;;24.90;65.30;;;;;;6295864;28;20052;-79
2023/07/01 12:39:38;;;;;;;9.40;1.98;;;25.00;64.40;;;;;;6295572;28;20056;-78
2023/07/01 12:42:40;;;;;;;8.05;2.00;;;25.10;64.70;;;;;;6293867;28;20043;-79
2023/07/01 12:45:43;;;;;;;4.78;1.90;;;25.20;64.40;;;;;;6295878;28;20059;-79
2023/07/01 12:48:44;;;;;;;4.55;2.30;;;25.00;64.40;;;;;;6295805;28;20056;-80
2023/07/01 12:51:46;;;;;;;2.85;2.22;;;24.80;64.80;;;;;;6295740;28;20055;-80
2023/07/01 12:54:48;;;;;;;10.70;2.03;;;24.80;65.00;;;;;;6291959;28;20045;-79
2023/07/01 12:57:50;;;;;;;2.53;1.65;;;24.70;65.30;;;;;;6294385;28;21695;-80
2023/07/01 13:00:53;;;;;;;4.72;1.67;;;24.70;65.40;;;;;;6294138;28;20048;-81
2023/07/01 13:03:54;;;;;;;6.38;1.83;;;24.70;65.10;;;;;;6294807;28;20051;-79
2023/07/01 13:06:56;;;;;;;2.15;1.77;;;24.60;65.60;;;;;;6293426;28;20070;-79
2023/07/01 13:09:59;;;;;;;2.92;2.03;;;24.70;66.00;;;;;;6295369;28;20198;-79
2023/07/01 13:13:01;;;;;;;2.25;1.80;;;24.80;65.90;;;;;;6294512;28;20072;-80
2023/07/01 13:16:05;;;;;;;3.97;1.83;;;24.90;66.10;;;;;;6295142;28;20071;-80
2023/07/01 13:19:08;;;;;;;2.85;1.65;;;24.90;66.10;;;;;;6294531;28;20145;-80
2023/07/01 13:22:10;;;;;;;3.85;1.58;;;25.00;66.40;;;;;;6296556;28;20056;-81
2023/07/01 13:25:17;;;;;;;4.45;1.38;;;25.00;65.80;;;;;;6296021;28;20040;-79
2023/07/01 13:28:19;;;;;;;;;;;24.90;66.10;;;;;;6267956;28;20053;-80
2023/07/01 13:31:23;;;;;;;2.67;2.03;;;24.90;66.00;;;;;;6266970;28;19920;-80
2023/07/01 13:34:26;;;;;;;2.47;1.80;;;24.90;65.90;;;;;;6263831;28;20057;-80
2023/07/01 13:37:27;;;;;;;3.45;1.50;;;24.80;66.10;;;;;;6264235;28;20053;-80
2023/07/01 13:40:29;;;;;;;5.03;1.95;;;24.70;66.30;;;;;;6261945;28;20049;-80
2023/07/01 13:43:31;;;;;;;3.40;1.70;;;24.50;66.40;;;;;;6265952;28;20053;-80
2023/07/01 13:46:36;;;;;;;1.77;1.20;;;24.20;67.00;;;;;;6271895;28;20038;-80
2023/07/01 13:49:38;;;;;;;2.40;1.65;;;24.00;68.00;;;;;;6271564;28;20516;-80
2023/07/01 13:52:40;;;;;;;2.05;1.70;;;24.00;68.60;;;;;;6276204;28;20049;-81
2023/07/01 13:55:43;;;;;;;3.40;1.90;;;24.00;69.00;;;;;;6272497;28;20659;-80
2023/07/01 13:58:46;;;;;;;3.90;1.38;;;23.90;69.30;;;;;;6272686;28;20045;-80
2023/07/01 14:01:57;;;;;;;3.28;1.80;;;23.80;69.80;;;;;;6276012;28;20106;-79
2023/07/01 14:04:59;;;;;;;3.17;1.42;;;23.70;70.60;;;;;;6275056;28;20404;-80
2023/07/01 14:08:01;;;;;;;5.43;2.10;;;23.60;71.10;;;;;;6278149;28;20048;-79
2023/07/01 14:11:03;;;;;;;3.92;1.73;;;23.50;72.80;;;;;;6274205;28;20040;-77
2023/07/01 14:14:04;;;;;;;2.90;1.58;;;23.30;74.40;;;;;;6270851;28;20484;-80
2023/07/01 14:17:08;;;;;;;3.58;1.55;;;23.00;75.60;;;;;;6274713;28;20045;-79
2023/07/01 14:20:13;;;;;;;2.33;1.85;;;23.00;76.70;;;;;;6275625;28;20132;-78
2023/07/01 14:23:19;;;;;;;2.00;1.73;;;23.20;76.90;;;;;;6275512;28;20044;-79
2023/07/01 14:26:28;;;;;;;4.45;2.00;;;23.20;77.00;;;;;;6273852;28;20041;-81
2023/07/01 14:29:31;;;;;;;2.70;1.80;;;23.20;77.30;;;;;;6271973;28;20131;-77
2023/07/01 14:32:34;;;;;;;5.38;1.73;;;23.10;77.30;;;;;;6274393;28;20060;-80
2023/07/01 14:35:36;;;;;;;4.28;1.52;;;23.20;77.60;;;;;;6272142;28;20132;-79
2023/07/01 14:38:43;;;;;;;3.70;1.48;;;23.20;77.50;;;;;;6277799;28;20395;-79
2023/07/01 14:41:44;;;;;;;3.72;1.65;;;23.20;77.50;;;;;;6274047;28;20053;-78
2023/07/01 14:44:50;;;;;;;7.80;3.70;;;23.20;77.70;;;;;;6268764;28;20060;-80
2023/07/01 14:47:53;;;;;;;1.70;1.10;;;23.30;77.30;;;;;;6275333;28;20151;-79
2023/07/01 14:50:55;;;;;;;3.30;1.80;;;23.40;77.00;;;;;;6273548;28;20048;-79
2023/07/01 14:53:57;;;;;;;3.50;1.38;;;23.40;77.10;;;;;;6273536;28;20049;-79
2023/07/01 14:56:59;;;;;;;3.80;1.45;;;23.20;77.40;;;;;;6275637;28;20041;-78
2023/07/01 15:00:00;;;;;;;5.65;1.17;;;23.20;77.90;;;;;;6274522;28;20419;-80
2023/07/01 15:03:03;;;;;;;1.30;1.20;;;23.20;78.50;;;;;;6273807;28;20316;-81
2023/07/01 15:06:05;;;;;;;2.10;1.45;;;23.40;78.90;;;;;;6275062;28;20586;-82
2023/07/01 15:09:07;;;;;;;2.25;1.77;;;23.40;78.10;;;;;;6275298;28;20068;-81
2023/07/01 15:12:09;;;;;;;3.38;1.13;;;23.20;78.50;;;;;;6274143;28;20045;-80
2023/07/01 15:15:11;;;;;;;2.88;2.38;;;23.20;79.00;;;;;;6279454;28;20036;-80
2023/07/01 15:18:14;;;;;;;4.55;1.90;;;23.00;79.40;;;;;;6280141;28;20397;-80
2023/07/01 15:21:16;;;;;;;6.25;1.40;;;23.00;79.80;;;;;;6276560;28;20049;-78
2023/07/01 15:24:17;;;;;;;2.45;2.25;;;22.90;79.80;;;;;;6278261;28;20056;-78
2023/07/01 15:27:19;;;;;;;2.45;1.95;;;23.00;80.10;;;;;;6286740;28;20051;-81
2023/07/01 15:30:21;;;;;;;1.63;1.52;;;23.10;80.00;;;;;;6295063;28;20479;-80
2023/07/01 15:33:24;;;;;;;2.00;1.15;;;23.00;80.00;;;;;;6293753;28;20052;-80
2023/07/01 15:36:25;;;;;;;2.40;1.30;;;23.10;80.40;;;;;;6295868;28;20048;-80
2023/07/01 15:39:27;;;;;;;1.63;1.40;;;23.00;80.50;;;;;;6296044;28;20047;-81
2023/07/01 15:42:29;;;;;;;2.13;1.50;;;23.00;80.90;;;;;;6297043;28;20551;-80
2023/07/01 15:45:30;;;;;;;2.88;1.05;;;23.20;80.90;;;;;;6298197;28;20495;-79
2023/07/01 15:48:33;;;;;;;3.63;1.15;;;23.40;80.80;;;;;;6298544;28;20487;-79
2023/07/01 15:51:35;;;;;;;1.23;1.05;;;23.60;80.40;;;;;;6295496;28;20044;-78
2023/07/01 15:54:37;;;;;;;1.05;0.82;;;23.90;80.20;;;;;;6291159;28;20048;-79
2023/07/01 15:57:39;;;;;;;2.25;1.52;;;24.00;79.80;;;;;;6292360;28;20045;-79